createdAt,value
2018-06-14T00:01:08.409Z,16.40
2018-06-14T00:03:36.472Z,16.40
2018-06-14T00:06:04.546Z,16.30
2018-06-14T00:08:32.627Z,16.30
2018-06-14T00:11:00.697Z,16.30
2018-06-14T00:13:28.773Z,16.30
2018-06-14T00:15:56.824Z,16.30
2018-06-14T00:18:24.897Z,16.30
2018-06-14T00:20:52.953Z,16.30
2018-06-14T00:23:21.037Z,16.30
2018-06-14T00:25:49.096Z,16.30
2018-06-14T00:28:17.164Z,16.30
2018-06-14T00:30:45.240Z,16.30
2018-06-14T00:33:13.276Z,16.30
2018-06-14T00:35:41.335Z,16.30
2018-06-14T00:38:09.370Z,16.30
2018-06-14T00:40:37.438Z,16.20
2018-06-14T00:43:05.477Z,16.30
2018-06-14T00:45:33.525Z,16.20
2018-06-14T00:48:01.586Z,16.20
2018-06-14T00:52:57.488Z,16.10
2018-06-14T00:55:25.537Z,16.10
2018-06-14T00:57:53.577Z,16.20
2018-06-14T01:00:21.636Z,16.20
2018-06-14T01:02:49.677Z,16.20
2018-06-14T01:05:17.740Z,16.20
2018-06-14T01:07:45.781Z,16.20
2018-06-14T01:10:13.828Z,16.20
2018-06-14T01:12:41.884Z,16.20
2018-06-14T01:15:09.944Z,16.20
2018-06-14T01:17:37.988Z,16.20
2018-06-14T01:20:06.049Z,16.20
2018-06-14T01:22:34.116Z,16.10
2018-06-14T01:25:02.172Z,16.10
2018-06-14T01:27:30.220Z,16.10
2018-06-14T01:29:58.281Z,16.10
2018-06-14T01:32:26.329Z,16.10
2018-06-14T01:34:54.393Z,16.10
2018-06-14T01:37:34.115Z,16.10
2018-06-14T01:40:02.184Z,16.10
2018-06-14T01:42:30.221Z,16.10
2018-06-14T01:44:58.286Z,16.10
2018-06-14T01:47:26.335Z,16.10
2018-06-14T01:49:54.389Z,16.10
2018-06-14T01:52:22.437Z,16.10
2018-06-14T01:54:50.501Z,16.10
2018-06-14T01:57:18.541Z,16.10
2018-06-14T01:59:46.600Z,16.10
2018-06-14T02:02:14.669Z,16.10
2018-06-14T02:07:10.565Z,16.10
2018-06-14T02:09:38.617Z,16.10
2018-06-14T02:12:06.693Z,16.10
2018-06-14T02:14:34.760Z,16.10
2018-06-14T02:17:02.813Z,16.10
2018-06-14T02:19:30.869Z,16.10
2018-06-14T02:21:58.930Z,16.10
2018-06-14T02:24:26.981Z,16.10
2018-06-14T02:26:55.041Z,16.10
2018-06-14T02:29:23.084Z,16.00
2018-06-14T02:31:51.170Z,16.00
2018-06-14T02:34:19.245Z,16.00
2018-06-14T02:36:47.304Z,16.00
2018-06-14T02:39:15.376Z,15.90
2018-06-14T02:41:43.452Z,15.90
2018-06-14T02:44:11.521Z,15.80
2018-06-14T02:46:39.600Z,15.80
2018-06-14T02:49:07.672Z,15.80
2018-06-14T02:51:35.744Z,15.80
2018-06-14T02:54:03.815Z,15.80
2018-06-14T02:56:31.896Z,15.80
2018-06-14T02:58:59.964Z,15.80
2018-06-14T03:01:28.045Z,15.80
2018-06-14T03:03:56.117Z,15.80
2018-06-14T03:06:24.189Z,15.80
2018-06-14T03:08:52.260Z,15.80
2018-06-14T03:11:20.345Z,15.80
2018-06-14T03:13:48.414Z,15.80
2018-06-14T03:16:16.505Z,15.80
2018-06-14T03:18:44.557Z,15.80
2018-06-14T03:21:12.628Z,15.90
2018-06-14T03:23:40.697Z,15.90
2018-06-14T03:26:08.770Z,15.90
2018-06-14T03:28:36.840Z,15.90
2018-06-14T03:31:04.924Z,15.90
2018-06-14T03:33:32.985Z,15.90
2018-06-14T03:38:28.968Z,15.90
2018-06-14T03:40:57.017Z,15.90
2018-06-14T03:43:25.094Z,15.90
2018-06-14T03:45:53.141Z,15.90
2018-06-14T03:48:21.200Z,15.90
2018-06-14T03:50:49.271Z,15.90
2018-06-14T03:53:17.317Z,15.90
2018-06-14T03:55:45.368Z,15.90
2018-06-14T03:58:14.173Z,16.00
2018-06-14T04:00:42.242Z,16.00
2018-06-14T04:03:10.785Z,15.90
2018-06-14T04:05:38.841Z,15.90
2018-06-14T04:08:06.893Z,16.00
2018-06-14T04:10:34.949Z,16.00
2018-06-14T04:13:02.992Z,16.00
2018-06-14T04:15:31.053Z,16.10
2018-06-14T04:18:03.157Z,16.10
2018-06-14T04:20:32.654Z,16.10
2018-06-14T04:23:01.065Z,16.10
2018-06-14T04:25:29.273Z,16.10
2018-06-14T04:27:57.322Z,16.20
2018-06-14T04:30:25.380Z,16.20
2018-06-14T04:32:53.612Z,16.20
2018-06-14T04:35:21.681Z,16.20
2018-06-14T04:37:49.765Z,16.30
2018-06-14T04:40:17.833Z,16.30
2018-06-14T04:42:45.933Z,16.30
2018-06-14T04:45:14.005Z,16.40
2018-06-14T04:47:42.081Z,16.40
2018-06-14T04:50:10.162Z,16.50
2018-06-14T04:52:38.225Z,16.50
2018-06-14T04:55:06.469Z,16.60
2018-06-14T04:57:34.565Z,16.60
2018-06-14T05:00:02.632Z,16.70
2018-06-14T05:02:30.783Z,16.70
2018-06-14T05:04:58.819Z,16.80
2018-06-14T05:07:26.900Z,16.80
2018-06-14T05:09:54.961Z,16.90
2018-06-14T05:12:23.029Z,17.00
2018-06-14T05:14:51.101Z,17.10
2018-06-14T05:17:19.193Z,17.10
2018-06-14T05:22:15.116Z,17.10
2018-06-14T05:24:43.176Z,17.20
2018-06-14T05:27:11.252Z,17.30
2018-06-14T05:29:39.360Z,17.40
2018-06-14T05:32:07.378Z,17.50
2018-06-14T05:34:35.429Z,17.60
2018-06-14T05:37:03.488Z,17.70
2018-06-14T05:39:31.537Z,17.80
2018-06-14T05:41:59.601Z,18.00
2018-06-14T05:44:27.648Z,18.10
2018-06-14T05:46:55.712Z,18.30
2018-06-14T05:49:23.804Z,18.40
2018-06-14T05:51:51.864Z,18.60
2018-06-14T05:56:47.813Z,18.90
2018-06-14T05:59:15.853Z,19.10
2018-06-14T06:01:43.893Z,19.30
2018-06-14T06:04:11.929Z,19.40
2018-06-14T06:06:39.981Z,19.60
2018-06-14T06:09:09.742Z,19.70
2018-06-14T06:11:37.797Z,19.90
2018-06-14T06:14:05.853Z,20.00
2018-06-14T06:16:33.908Z,20.20
2018-06-14T06:19:02.000Z,20.20
2018-06-14T06:21:30.065Z,20.20
2018-06-14T06:23:58.109Z,20.20
2018-06-14T06:26:26.207Z,20.30
2018-06-14T06:28:54.251Z,20.40
2018-06-14T06:31:22.309Z,20.50
2018-06-14T06:33:50.445Z,20.60
2018-06-14T06:36:18.516Z,21.00
2018-06-14T06:38:46.682Z,21.50
2018-06-14T06:41:14.733Z,21.70
2018-06-14T06:43:42.856Z,21.90
2018-06-14T06:46:12.131Z,21.80
2018-06-14T06:48:40.209Z,21.70
2018-06-14T06:51:08.272Z,21.60
2018-06-14T06:53:36.343Z,21.80
2018-06-14T06:56:04.449Z,21.80
2018-06-14T06:58:32.510Z,21.80
2018-06-14T07:01:00.585Z,21.70
2018-06-14T07:03:28.657Z,21.90
2018-06-14T07:05:56.805Z,22.10
2018-06-14T07:08:24.807Z,22.00
2018-06-14T07:10:52.868Z,22.00
2018-06-14T07:13:20.941Z,22.30
2018-06-14T07:15:49.005Z,22.50
2018-06-14T07:18:17.077Z,22.60
2018-06-14T07:20:45.144Z,22.80
2018-06-14T07:23:13.204Z,22.60
2018-06-14T07:25:41.273Z,22.50
2018-06-14T07:28:09.349Z,22.40
2018-06-14T07:30:37.412Z,22.60
2018-06-14T07:33:05.505Z,22.70
2018-06-14T07:35:33.568Z,22.80
2018-06-14T07:38:01.636Z,22.90
2018-06-14T07:40:29.697Z,22.90
2018-06-14T07:42:57.806Z,22.70
2018-06-14T07:45:25.845Z,22.60
2018-06-14T07:47:53.920Z,22.60
2018-06-14T07:50:22.002Z,22.70
2018-06-14T07:52:50.077Z,23.10
2018-06-14T07:55:18.144Z,23.50
2018-06-14T07:57:46.218Z,23.90
2018-06-14T08:00:14.277Z,24.20
2018-06-14T08:02:42.357Z,24.20
2018-06-14T08:05:10.427Z,24.00
2018-06-14T08:07:38.490Z,23.80
2018-06-14T08:10:06.705Z,23.40
2018-06-14T08:12:34.793Z,23.00
2018-06-14T08:15:02.852Z,22.90
2018-06-14T08:17:30.934Z,22.70
2018-06-14T08:19:59.012Z,22.30
2018-06-14T08:22:27.080Z,22.50
2018-06-14T08:27:23.013Z,23.20
2018-06-14T08:29:51.069Z,23.70
2018-06-14T08:32:19.153Z,23.80
2018-06-14T08:34:47.221Z,23.90
2018-06-14T08:37:15.330Z,23.70
2018-06-14T08:39:43.390Z,23.70
2018-06-14T08:42:11.429Z,24.10
2018-06-14T08:44:39.486Z,24.00
2018-06-14T08:47:07.573Z,24.20
2018-06-14T08:49:35.621Z,24.80
2018-06-14T08:52:03.677Z,24.90
2018-06-14T08:54:31.716Z,25.10
2018-06-14T08:56:59.752Z,25.20
2018-06-14T08:59:27.806Z,24.90
2018-06-14T09:01:55.852Z,24.50
2018-06-14T09:04:23.900Z,23.90
2018-06-14T09:06:51.962Z,23.70
2018-06-14T09:11:54.510Z,23.40
2018-06-14T09:14:22.556Z,23.50
2018-06-14T09:16:50.597Z,23.90
2018-06-14T09:19:18.648Z,24.30
2018-06-14T09:21:46.715Z,24.80
2018-06-14T09:24:14.761Z,25.40
2018-06-14T09:26:42.837Z,25.90
2018-06-14T09:29:10.932Z,26.30
2018-06-14T09:31:39.077Z,26.70
2018-06-14T09:34:07.149Z,26.30
2018-06-14T09:36:35.213Z,25.50
2018-06-14T09:39:04.426Z,24.80
2018-06-14T09:41:32.497Z,24.10
2018-06-14T09:44:00.648Z,23.20
2018-06-14T09:46:28.728Z,23.00
2018-06-14T09:49:02.270Z,22.70
2018-06-14T09:51:30.345Z,22.70
2018-06-14T09:53:58.553Z,22.80
2018-06-14T09:56:26.614Z,23.00
2018-06-14T09:58:54.681Z,23.10
2018-06-14T10:01:22.745Z,22.80
2018-06-14T10:03:50.808Z,23.10
2018-06-14T10:06:19.108Z,23.70
2018-06-14T10:08:47.209Z,24.60
2018-06-14T10:11:15.264Z,25.40
2018-06-14T10:13:43.349Z,25.50
2018-06-14T10:16:11.418Z,25.40
2018-06-14T10:18:39.530Z,25.10
2018-06-14T10:21:07.543Z,25.20
2018-06-14T10:26:03.457Z,25.00
2018-06-14T10:28:31.521Z,25.20
2018-06-14T10:30:59.817Z,25.10
2018-06-14T10:33:27.901Z,25.20
2018-06-14T10:35:56.290Z,25.00
2018-06-14T10:38:24.357Z,24.90
2018-06-14T10:40:52.429Z,25.00
2018-06-14T10:43:20.489Z,25.00
2018-06-14T10:45:48.540Z,25.00
2018-06-14T10:48:16.613Z,25.20
2018-06-14T10:50:44.660Z,25.60
2018-06-14T10:53:12.731Z,25.90
2018-06-14T10:55:40.789Z,26.10
2018-06-14T10:58:08.850Z,25.80
2018-06-14T11:00:36.912Z,25.40
2018-06-14T11:03:04.980Z,25.00
2018-06-14T11:08:01.033Z,24.20
2018-06-14T11:10:29.096Z,24.20
2018-06-14T11:12:57.153Z,24.20
2018-06-14T11:15:25.216Z,24.20
2018-06-14T11:17:53.281Z,24.30
2018-06-14T11:20:21.396Z,24.40
2018-06-14T11:22:49.429Z,24.50
2018-06-14T11:25:17.492Z,24.80
2018-06-14T11:27:45.543Z,25.40
2018-06-14T11:30:13.619Z,26.10
2018-06-14T11:32:41.677Z,26.30
2018-06-14T11:35:09.754Z,26.60
2018-06-14T11:37:37.806Z,26.50
2018-06-14T11:40:05.875Z,26.40
2018-06-14T11:42:33.943Z,26.50
2018-06-14T11:45:02.012Z,26.60
2018-06-14T11:47:30.060Z,26.50
2018-06-14T11:49:58.133Z,26.30
2018-06-14T11:52:26.186Z,26.30
2018-06-14T11:54:54.265Z,25.50
2018-06-14T11:57:22.332Z,25.00
2018-06-14T11:59:51.692Z,24.90
2018-06-14T12:02:20.688Z,24.70
2018-06-14T12:04:48.995Z,24.60
2018-06-14T12:07:17.070Z,24.40
2018-06-14T12:09:45.537Z,24.30
2018-06-14T12:12:13.854Z,24.40
2018-06-14T12:14:41.997Z,24.40
2018-06-14T12:17:10.092Z,24.30
2018-06-14T12:19:38.165Z,24.20
2018-06-14T12:22:06.497Z,24.30
2018-06-14T12:24:34.697Z,24.10
2018-06-14T12:27:02.744Z,23.60
2018-06-14T12:29:30.828Z,23.50
2018-06-14T12:31:58.888Z,23.60
2018-06-14T12:34:26.966Z,24.00
2018-06-14T12:36:55.028Z,24.60
2018-06-14T12:39:23.109Z,25.00
2018-06-14T12:41:51.173Z,25.40
2018-06-14T12:44:19.325Z,25.90
2018-06-14T12:46:47.317Z,26.40
2018-06-14T12:49:15.392Z,26.20
2018-06-14T12:51:43.465Z,25.90
2018-06-14T12:54:11.534Z,25.90
2018-06-14T12:56:39.616Z,26.20
2018-06-14T12:59:07.673Z,26.80
2018-06-14T13:01:35.741Z,27.10
2018-06-14T13:04:03.807Z,27.40
2018-06-14T13:06:32.125Z,27.70
2018-06-14T13:09:00.197Z,27.90
2018-06-14T13:11:28.285Z,27.70
2018-06-14T13:13:56.351Z,27.10
2018-06-14T13:16:24.425Z,26.40
2018-06-14T13:18:52.496Z,26.20
2018-06-14T13:21:20.566Z,26.50
2018-06-14T13:23:48.645Z,26.20
2018-06-14T13:26:16.710Z,25.50
2018-06-14T13:28:51.439Z,25.10
2018-06-14T13:31:19.511Z,25.40
2018-06-14T13:33:47.577Z,25.70
2018-06-14T13:36:15.632Z,25.90
2018-06-14T13:38:43.689Z,26.10
2018-06-14T13:41:18.356Z,26.20
2018-06-14T13:43:46.421Z,25.70
2018-06-14T13:46:14.808Z,25.40
2018-06-14T13:48:42.965Z,25.30
2018-06-14T13:51:10.936Z,25.40
2018-06-14T13:53:39.005Z,25.30
2018-06-14T13:56:07.077Z,25.40
2018-06-14T13:58:35.149Z,25.70
2018-06-14T14:01:03.257Z,25.70
2018-06-14T14:03:31.289Z,25.70
2018-06-14T14:05:59.360Z,25.40
2018-06-14T14:08:27.873Z,25.40
2018-06-14T14:10:55.949Z,25.30
2018-06-14T14:13:24.000Z,25.30
2018-06-14T14:15:52.068Z,25.30
2018-06-14T14:18:20.135Z,25.20
2018-06-14T14:20:48.197Z,25.00
2018-06-14T14:23:16.265Z,25.20
2018-06-14T14:25:44.352Z,25.60
2018-06-14T14:28:12.407Z,25.40
2018-06-14T14:30:40.480Z,24.90
2018-06-14T14:33:08.530Z,24.50
2018-06-14T14:35:36.579Z,24.20
2018-06-14T14:38:04.636Z,24.30
2018-06-14T14:40:32.680Z,24.60
2018-06-14T14:43:00.730Z,25.00
2018-06-14T14:45:28.773Z,25.20
2018-06-14T14:47:56.817Z,25.30
2018-06-14T14:50:24.861Z,25.10
2018-06-14T14:52:52.964Z,25.10
2018-06-14T14:55:20.957Z,24.80
2018-06-14T14:57:49.001Z,24.50
2018-06-14T15:00:17.073Z,24.30
2018-06-14T15:02:45.113Z,24.00
2018-06-14T15:05:13.221Z,24.10
2018-06-14T15:07:41.275Z,24.20
2018-06-14T15:10:09.308Z,24.40
2018-06-14T15:12:37.357Z,24.60
2018-06-14T15:15:05.428Z,24.60
2018-06-14T15:17:33.473Z,24.40
2018-06-14T15:20:01.521Z,24.10
2018-06-14T15:22:29.564Z,24.00
2018-06-14T15:24:57.609Z,23.80
2018-06-14T15:27:25.654Z,23.60
2018-06-14T15:29:53.696Z,23.80
2018-06-14T15:32:21.740Z,24.00
2018-06-14T15:34:49.810Z,24.00
2018-06-14T15:37:17.893Z,23.80
2018-06-14T15:39:46.028Z,23.80
2018-06-14T15:42:14.101Z,23.80
2018-06-14T15:44:42.157Z,23.90
2018-06-14T15:47:10.231Z,24.10
2018-06-14T15:49:38.289Z,24.20
2018-06-14T15:52:06.509Z,24.30
2018-06-14T15:54:34.569Z,24.40
2018-06-14T15:57:02.648Z,24.30
2018-06-14T15:59:30.704Z,24.10
2018-06-14T16:04:26.621Z,24.00
2018-06-14T16:06:54.693Z,24.10
2018-06-14T16:09:22.756Z,24.10
2018-06-14T16:11:50.836Z,24.00
2018-06-14T16:14:18.876Z,23.80
2018-06-14T16:16:46.933Z,23.50
2018-06-14T16:19:14.969Z,23.20
2018-06-14T16:21:43.017Z,22.90
2018-06-14T16:24:11.104Z,22.80
2018-06-14T16:26:39.160Z,22.70
2018-06-14T16:29:07.205Z,22.60
2018-06-14T16:31:35.248Z,22.70
2018-06-14T16:34:03.305Z,22.70
2018-06-14T16:36:31.353Z,22.70
2018-06-14T16:38:59.424Z,22.70
2018-06-14T16:41:27.437Z,22.70
2018-06-14T16:43:55.493Z,22.60
2018-06-14T16:46:23.533Z,22.50
2018-06-14T16:48:51.580Z,22.40
2018-06-14T16:51:19.629Z,22.40
2018-06-14T16:53:47.668Z,22.40
2018-06-14T16:56:15.713Z,22.30
2018-06-14T16:58:43.764Z,22.30
2018-06-14T17:01:11.809Z,22.30
2018-06-14T17:03:39.860Z,22.20
2018-06-14T17:06:07.898Z,22.30
2018-06-14T17:08:35.949Z,22.10
2018-06-14T17:11:03.992Z,22.20
2018-06-14T17:13:32.081Z,22.20
2018-06-14T17:16:00.144Z,22.10
2018-06-14T17:18:28.153Z,22.10
2018-06-14T17:20:56.201Z,22.10
2018-06-14T17:23:24.244Z,22.10
2018-06-14T17:25:52.285Z,22.20
2018-06-14T17:28:20.329Z,22.10
2018-06-14T17:30:48.373Z,22.00
2018-06-14T17:33:16.445Z,22.00
2018-06-14T17:35:44.512Z,21.90
2018-06-14T17:38:12.592Z,21.90
2018-06-14T17:40:40.889Z,21.80
2018-06-14T17:43:09.020Z,21.70
2018-06-14T17:45:37.033Z,21.80
2018-06-14T17:48:05.272Z,21.70
2018-06-14T17:50:33.344Z,21.70
2018-06-14T17:53:01.406Z,21.60
2018-06-14T17:55:29.500Z,21.70
2018-06-14T17:57:57.556Z,21.60
2018-06-14T18:00:25.681Z,21.70
2018-06-14T18:02:53.746Z,21.60
2018-06-14T18:05:21.782Z,21.60
2018-06-14T18:07:49.841Z,21.50
2018-06-14T18:10:17.897Z,21.50
2018-06-14T18:12:45.961Z,21.40
2018-06-14T18:15:14.040Z,21.30
2018-06-14T18:17:42.097Z,21.30
2018-06-14T18:20:10.148Z,21.30
2018-06-14T18:22:38.205Z,21.20
2018-06-14T18:25:06.273Z,21.20
2018-06-14T18:27:34.349Z,21.20
2018-06-14T18:30:02.507Z,21.10
2018-06-14T18:32:30.500Z,21.10
2018-06-14T18:34:58.542Z,21.10
2018-06-14T18:37:26.622Z,21.10
2018-06-14T18:39:54.669Z,21.10
2018-06-14T18:42:22.752Z,21.00
2018-06-14T18:44:50.825Z,21.00
2018-06-14T18:47:18.911Z,21.00
2018-06-14T18:49:47.000Z,21.00
2018-06-14T18:54:42.915Z,21.00
2018-06-14T18:57:11.002Z,20.90
2018-06-14T18:59:39.136Z,20.90
2018-06-14T19:02:07.192Z,20.90
2018-06-14T19:04:35.259Z,20.80
2018-06-14T19:07:03.314Z,20.70
2018-06-14T19:09:31.389Z,20.60
2018-06-14T19:11:59.443Z,20.60
2018-06-14T19:14:27.497Z,20.60
2018-06-14T19:16:55.563Z,20.60
2018-06-14T19:19:23.629Z,20.60
2018-06-14T19:21:51.684Z,20.60
2018-06-14T19:24:19.749Z,20.40
2018-06-14T19:26:47.809Z,20.40
2018-06-14T19:29:15.895Z,20.30
2018-06-14T19:31:43.941Z,20.30
2018-06-14T19:34:12.042Z,20.30
2018-06-14T19:36:40.073Z,20.20
2018-06-14T19:39:09.144Z,20.30
2018-06-14T19:41:37.212Z,20.30
2018-06-14T19:44:05.330Z,20.30
2018-06-14T19:46:33.387Z,20.30
2018-06-14T19:49:01.448Z,20.20
2018-06-14T19:51:29.509Z,20.00
2018-06-14T19:53:57.572Z,20.00
2018-06-14T19:56:25.659Z,19.90
2018-06-14T19:58:53.753Z,19.90
2018-06-14T20:01:21.816Z,19.90
2018-06-14T20:03:49.873Z,20.00
2018-06-14T20:06:17.933Z,19.90
2018-06-14T20:08:45.996Z,19.90
2018-06-14T20:11:14.060Z,19.90
2018-06-14T20:13:42.120Z,19.90
2018-06-14T20:16:10.186Z,19.90
2018-06-14T20:18:38.249Z,20.00
2018-06-14T20:21:06.385Z,19.90
2018-06-14T20:23:34.377Z,19.90
2018-06-14T20:26:02.504Z,19.90
2018-06-14T20:28:30.573Z,20.00
2018-06-14T20:30:58.633Z,20.00
2018-06-14T20:33:26.705Z,20.00
2018-06-14T20:35:54.757Z,20.00
2018-06-14T20:38:22.825Z,20.00
2018-06-14T20:43:18.812Z,20.00
2018-06-14T20:45:46.882Z,20.00
2018-06-14T20:48:14.946Z,20.00
2018-06-14T20:50:43.013Z,20.00
2018-06-14T20:53:11.765Z,20.00
2018-06-14T20:55:39.824Z,20.00
2018-06-14T20:58:07.879Z,19.80
2018-06-14T21:00:35.933Z,19.60
2018-06-14T21:03:03.988Z,19.40
2018-06-14T21:05:32.049Z,19.40
2018-06-14T21:08:00.108Z,19.30
2018-06-14T21:10:28.220Z,19.30
2018-06-14T21:12:56.357Z,19.30
2018-06-14T21:15:24.421Z,19.30
2018-06-14T21:17:52.480Z,19.30
2018-06-14T21:20:20.550Z,19.30
2018-06-14T21:22:48.605Z,19.30
2018-06-14T21:25:16.669Z,19.10
2018-06-14T21:27:44.736Z,19.00
2018-06-14T21:30:12.804Z,19.00
2018-06-14T21:32:40.852Z,19.00
2018-06-14T21:35:08.904Z,18.90
2018-06-14T21:37:36.937Z,18.90
2018-06-14T21:40:05.049Z,18.90
2018-06-14T21:42:33.172Z,18.90
2018-06-14T21:45:01.224Z,18.80
2018-06-14T21:47:29.261Z,18.70
2018-06-14T21:49:57.309Z,18.70
2018-06-14T21:52:25.340Z,18.70
2018-06-14T21:54:53.385Z,18.70
2018-06-14T21:57:21.417Z,18.70
2018-06-14T21:59:49.569Z,18.70
2018-06-14T22:02:17.605Z,18.70
2018-06-14T22:07:14.747Z,18.70
2018-06-14T22:09:43.644Z,18.60
2018-06-14T22:12:12.050Z,18.60
2018-06-14T22:14:40.326Z,18.60
2018-06-14T22:17:08.708Z,18.60
2018-06-14T22:19:36.749Z,18.60
2018-06-14T22:22:04.794Z,18.60
2018-06-14T22:24:32.832Z,18.60
2018-06-14T22:27:00.865Z,18.70
2018-06-14T22:29:29.143Z,18.70
2018-06-14T22:31:57.320Z,18.70
2018-06-14T22:34:37.109Z,18.70
2018-06-14T22:37:05.179Z,18.70
2018-06-14T22:39:33.264Z,18.70
2018-06-14T22:42:01.308Z,18.60
2018-06-14T22:44:29.375Z,18.60
2018-06-14T22:46:57.429Z,18.60
2018-06-14T22:49:25.508Z,18.60
2018-06-14T22:53:05.977Z,18.60
2018-06-14T22:55:34.045Z,18.60
2018-06-14T22:58:02.103Z,18.60
2018-06-14T23:01:41.618Z,18.50
2018-06-14T23:04:10.924Z,18.50
2018-06-14T23:06:39.000Z,18.50
2018-06-14T23:10:25.236Z,18.50
2018-06-14T23:12:53.336Z,18.50
2018-06-14T23:15:21.716Z,18.40
2018-06-14T23:17:50.408Z,18.40
2018-06-14T23:20:20.665Z,18.40
2018-06-14T23:22:49.753Z,18.40
2018-06-14T23:25:18.656Z,18.40
2018-06-14T23:27:46.832Z,18.40
2018-06-14T23:30:14.904Z,18.40
2018-06-14T23:32:42.976Z,18.40
2018-06-14T23:35:11.028Z,18.40
2018-06-14T23:37:39.074Z,18.40
2018-06-14T23:40:07.100Z,18.40
2018-06-14T23:42:35.144Z,18.40
2018-06-14T23:45:03.150Z,18.30
2018-06-14T23:47:31.175Z,18.30
2018-06-14T23:49:59.193Z,18.30
2018-06-14T23:52:27.203Z,18.20
2018-06-14T23:54:55.216Z,18.20
2018-06-14T23:57:23.371Z,18.10
2018-06-14T23:59:51.623Z,18.10
